createdAt,value
2019-03-27T00:01:53.807Z,1.80
2019-03-27T00:04:21.463Z,1.90
2019-03-27T00:06:49.114Z,2.30
2019-03-27T00:09:16.761Z,1.97
2019-03-27T00:11:44.414Z,2.07
2019-03-27T00:14:12.063Z,1.70
2019-03-27T00:16:39.718Z,1.63
2019-03-27T00:19:07.357Z,2.10
2019-03-27T00:21:35.011Z,2.63
2019-03-27T00:24:02.648Z,1.90
2019-03-27T00:26:30.307Z,1.73
2019-03-27T00:28:57.950Z,1.63
2019-03-27T00:31:25.608Z,2.20
2019-03-27T00:33:53.336Z,1.87
2019-03-27T00:36:20.999Z,2.27
2019-03-27T00:38:48.648Z,2.60
2019-03-27T00:41:16.318Z,1.70
2019-03-27T00:43:43.951Z,1.87
2019-03-27T00:46:11.612Z,1.40
2019-03-27T00:48:39.261Z,1.70
2019-03-27T00:51:06.912Z,1.50
2019-03-27T00:53:34.555Z,1.73
2019-03-27T00:56:02.202Z,1.33
2019-03-27T00:58:29.831Z,2.17
2019-03-27T01:00:57.483Z,1.80
2019-03-27T01:03:25.117Z,1.53
2019-03-27T01:05:52.773Z,1.77
2019-03-27T01:08:20.424Z,1.80
2019-03-27T01:10:48.084Z,1.80
2019-03-27T01:13:15.714Z,2.10
2019-03-27T01:15:43.363Z,2.33
2019-03-27T01:18:11.006Z,1.90
2019-03-27T01:20:38.658Z,1.87
2019-03-27T01:23:06.307Z,2.13
2019-03-27T01:25:33.954Z,2.00
2019-03-27T01:28:01.601Z,1.80
2019-03-27T01:30:29.258Z,1.80
2019-03-27T01:32:56.901Z,1.70
2019-03-27T01:35:24.551Z,1.70
2019-03-27T01:37:52.208Z,2.20
2019-03-27T01:40:19.856Z,2.03
2019-03-27T01:42:47.511Z,2.07
2019-03-27T01:45:15.143Z,1.97
2019-03-27T01:47:42.840Z,2.27
2019-03-27T01:50:10.483Z,2.00
2019-03-27T01:52:38.127Z,1.93
2019-03-27T01:55:05.775Z,1.50
2019-03-27T01:57:33.434Z,1.90
2019-03-27T02:00:01.098Z,1.80
2019-03-27T02:02:28.750Z,1.93
2019-03-27T02:04:56.425Z,2.00
2019-03-27T02:07:24.256Z,2.47
2019-03-27T02:09:51.904Z,2.07
2019-03-27T02:12:19.551Z,1.77
2019-03-27T02:14:47.203Z,2.50
2019-03-27T02:17:14.841Z,2.20
2019-03-27T02:19:42.501Z,2.20
2019-03-27T02:22:10.154Z,2.17
2019-03-27T02:24:37.795Z,2.10
2019-03-27T02:27:05.529Z,2.73
2019-03-27T02:29:33.171Z,2.30
2019-03-27T02:32:00.919Z,2.33
2019-03-27T02:34:28.569Z,2.50
2019-03-27T02:36:56.224Z,2.60
2019-03-27T02:39:23.876Z,3.13
2019-03-27T02:41:51.534Z,2.30
2019-03-27T02:44:19.235Z,2.90
2019-03-27T02:46:46.874Z,2.90
2019-03-27T02:49:14.530Z,3.30
2019-03-27T02:51:42.189Z,3.07
2019-03-27T02:54:09.839Z,3.43
2019-03-27T02:56:37.496Z,2.70
2019-03-27T02:59:05.134Z,2.93
2019-03-27T03:01:32.812Z,3.00
2019-03-27T03:04:00.456Z,2.60
2019-03-27T03:06:28.090Z,2.70
2019-03-27T03:08:55.739Z,3.00
2019-03-27T03:11:23.387Z,3.27
2019-03-27T03:13:51.035Z,2.97
2019-03-27T03:16:18.685Z,2.73
2019-03-27T03:18:46.350Z,2.80
2019-03-27T03:21:14.070Z,2.90
2019-03-27T03:23:41.717Z,2.97
2019-03-27T03:26:09.364Z,3.33
2019-03-27T03:28:37.010Z,3.33
2019-03-27T03:31:04.681Z,2.60
2019-03-27T03:33:32.392Z,3.33
2019-03-27T03:36:00.053Z,3.70
2019-03-27T03:38:27.711Z,3.97
2019-03-27T03:40:55.625Z,3.30
2019-03-27T03:43:23.292Z,3.87
2019-03-27T03:45:50.938Z,3.67
2019-03-27T03:48:18.638Z,4.00
2019-03-27T03:50:46.348Z,4.10
2019-03-27T03:53:14.020Z,4.03
2019-03-27T03:55:41.675Z,3.97
2019-03-27T03:58:09.330Z,3.50
2019-03-27T04:00:36.980Z,4.67
2019-03-27T04:03:04.632Z,3.93
2019-03-27T04:05:32.284Z,4.00
2019-03-27T04:07:59.936Z,3.70
2019-03-27T04:10:27.593Z,4.47
2019-03-27T04:12:55.290Z,4.97
2019-03-27T04:15:22.924Z,4.07
2019-03-27T04:17:50.568Z,4.30
2019-03-27T04:20:18.211Z,4.33
2019-03-27T04:22:45.883Z,4.03
2019-03-27T04:25:13.615Z,4.30
2019-03-27T04:27:41.300Z,4.10
2019-03-27T04:30:09.010Z,4.23
2019-03-27T04:32:36.673Z,4.07
2019-03-27T04:35:04.319Z,3.90
2019-03-27T04:37:31.965Z,4.80
2019-03-27T04:39:59.626Z,4.23
2019-03-27T04:42:27.346Z,4.47
2019-03-27T04:44:55.005Z,4.97
2019-03-27T04:47:31.918Z,4.50
2019-03-27T04:49:52.018Z,4.87
2019-03-27T04:52:19.670Z,4.67
2019-03-27T04:54:47.493Z,5.17
2019-03-27T04:57:15.174Z,4.87
2019-03-27T04:59:42.827Z,5.30
2019-03-27T05:02:10.476Z,5.47
2019-03-27T05:04:38.727Z,5.83
2019-03-27T05:07:06.382Z,5.87
2019-03-27T05:09:34.051Z,4.60
2019-03-27T05:12:01.690Z,5.47
2019-03-27T05:14:29.349Z,5.77
2019-03-27T05:16:56.991Z,6.13
2019-03-27T05:19:24.648Z,5.87
2019-03-27T05:21:52.312Z,5.83
2019-03-27T05:24:19.967Z,4.27
2019-03-27T05:26:47.612Z,5.97
2019-03-27T05:29:15.259Z,5.00
2019-03-27T05:31:42.917Z,5.60
2019-03-27T05:34:10.672Z,6.07
2019-03-27T05:36:38.329Z,6.30
2019-03-27T05:39:05.978Z,6.57
2019-03-27T05:41:33.623Z,6.47
2019-03-27T05:44:01.278Z,6.77
2019-03-27T05:46:28.942Z,6.83
2019-03-27T05:48:56.595Z,8.60
2019-03-27T05:51:24.266Z,7.43
2019-03-27T05:53:51.931Z,7.83
2019-03-27T05:56:19.586Z,8.10
2019-03-27T05:58:47.238Z,7.47
2019-03-27T06:01:14.907Z,8.10
2019-03-27T06:03:42.567Z,8.40
2019-03-27T06:06:10.257Z,8.73
2019-03-27T06:08:37.924Z,8.43
2019-03-27T06:11:05.567Z,9.40
2019-03-27T06:13:33.223Z,8.83
2019-03-27T06:16:01.158Z,9.40
2019-03-27T06:18:28.880Z,9.43
2019-03-27T06:20:56.538Z,9.13
2019-03-27T06:23:24.195Z,9.20
2019-03-27T06:25:51.858Z,8.80
2019-03-27T06:28:19.518Z,8.77
2019-03-27T06:30:47.174Z,8.30
2019-03-27T06:33:14.837Z,8.17
2019-03-27T06:35:42.496Z,9.30
2019-03-27T06:38:10.152Z,8.77
2019-03-27T06:40:39.751Z,9.70
2019-03-27T06:43:07.170Z,8.97
2019-03-27T06:45:34.821Z,8.30
2019-03-27T06:48:02.475Z,7.80
2019-03-27T06:50:30.140Z,8.53
2019-03-27T06:52:57.789Z,8.63
2019-03-27T06:55:25.443Z,8.20
2019-03-27T06:57:53.101Z,8.97
2019-03-27T07:00:20.752Z,9.17
2019-03-27T07:02:48.403Z,8.37
2019-03-27T07:05:16.062Z,8.70
2019-03-27T07:07:43.723Z,8.10
2019-03-27T07:10:11.395Z,8.60
2019-03-27T07:12:39.049Z,8.20
2019-03-27T07:15:06.703Z,9.17
2019-03-27T07:17:34.358Z,8.83
2019-03-27T07:20:02.020Z,7.77
2019-03-27T07:22:29.684Z,8.80
2019-03-27T07:24:57.334Z,8.77
2019-03-27T07:27:25.004Z,8.23
2019-03-27T07:29:52.663Z,9.27
2019-03-27T07:32:20.315Z,9.03
2019-03-27T07:34:47.968Z,8.50
2019-03-27T07:37:15.630Z,7.87
2019-03-27T07:39:43.282Z,6.53
2019-03-27T07:42:10.939Z,7.40
2019-03-27T07:44:38.583Z,6.93
2019-03-27T07:47:06.244Z,6.47
2019-03-27T07:49:33.898Z,6.87
2019-03-27T07:52:01.550Z,5.63
2019-03-27T07:54:29.203Z,6.40
2019-03-27T07:56:56.850Z,6.10
2019-03-27T07:59:24.490Z,5.77
2019-03-27T08:01:52.155Z,5.33
2019-03-27T08:04:19.844Z,5.70
2019-03-27T08:06:47.528Z,5.20
2019-03-27T08:09:15.179Z,4.97
2019-03-27T08:11:42.834Z,5.60
2019-03-27T08:14:10.481Z,5.33
2019-03-27T08:16:38.147Z,5.47
2019-03-27T08:19:07.718Z,5.30
2019-03-27T08:21:35.166Z,6.80
2019-03-27T08:24:02.901Z,5.97
2019-03-27T08:26:30.571Z,6.00
2019-03-27T08:28:58.230Z,5.93
2019-03-27T08:31:25.887Z,5.70
2019-03-27T08:33:53.538Z,6.20
2019-03-27T08:36:21.186Z,5.53
2019-03-27T08:38:48.845Z,5.57
2019-03-27T08:41:16.499Z,6.03
2019-03-27T08:43:44.151Z,6.30
2019-03-27T08:46:11.809Z,6.17
2019-03-27T08:48:39.486Z,7.20
2019-03-27T08:51:07.312Z,5.87
2019-03-27T08:53:34.957Z,6.57
2019-03-27T08:56:02.639Z,7.33
2019-03-27T08:58:30.304Z,6.60
2019-03-27T09:00:57.979Z,6.93
2019-03-27T09:03:25.632Z,6.83
2019-03-27T09:05:53.295Z,5.77
2019-03-27T09:08:20.964Z,6.30
2019-03-27T09:10:48.610Z,6.37
2019-03-27T09:13:16.268Z,6.77
2019-03-27T09:15:43.974Z,6.10
2019-03-27T09:18:11.636Z,6.03
2019-03-27T09:20:39.295Z,7.50
2019-03-27T09:23:06.939Z,7.07
2019-03-27T09:25:34.627Z,7.43
2019-03-27T09:28:02.291Z,7.13
2019-03-27T09:30:29.943Z,5.43
2019-03-27T09:32:57.591Z,6.33
2019-03-27T09:35:25.247Z,7.10
2019-03-27T09:37:52.895Z,6.17
2019-03-27T09:40:20.599Z,6.70
2019-03-27T09:42:48.304Z,6.47
2019-03-27T09:45:16.044Z,6.03
2019-03-27T09:47:43.696Z,6.07
2019-03-27T09:50:11.346Z,5.10
2019-03-27T09:52:38.996Z,5.90
2019-03-27T09:55:06.648Z,5.83
2019-03-27T09:57:34.344Z,5.27
2019-03-27T10:00:02.008Z,4.97
2019-03-27T10:02:29.671Z,6.30
2019-03-27T10:04:57.328Z,5.43
2019-03-27T10:07:24.993Z,5.33
2019-03-27T10:09:52.652Z,4.90
2019-03-27T10:12:20.305Z,4.23
2019-03-27T10:14:48.042Z,4.77
2019-03-27T10:17:15.810Z,4.60
2019-03-27T10:19:43.499Z,4.63
2019-03-27T10:22:11.151Z,4.37
2019-03-27T10:24:38.795Z,4.30
2019-03-27T10:27:06.451Z,4.03
2019-03-27T10:29:34.095Z,4.53
2019-03-27T10:32:01.753Z,4.50
2019-03-27T10:34:29.414Z,3.80
2019-03-27T10:36:57.063Z,4.10
2019-03-27T10:39:24.703Z,3.90
2019-03-27T10:41:52.363Z,3.57
2019-03-27T10:44:20.014Z,4.40
2019-03-27T10:46:47.675Z,4.20
2019-03-27T10:49:15.328Z,3.53
2019-03-27T10:51:42.983Z,4.10
2019-03-27T10:54:10.627Z,4.37
2019-03-27T10:56:38.285Z,3.77
2019-03-27T10:59:05.928Z,4.20
2019-03-27T11:01:33.600Z,4.40
2019-03-27T11:04:01.264Z,4.70
2019-03-27T11:06:28.949Z,4.37
2019-03-27T11:08:56.587Z,4.30
2019-03-27T11:11:24.250Z,4.07
2019-03-27T11:13:51.895Z,4.13
2019-03-27T11:16:19.627Z,4.40
2019-03-27T11:18:47.295Z,3.70
2019-03-27T11:21:14.958Z,4.47
2019-03-27T11:23:42.598Z,3.77
2019-03-27T11:26:10.257Z,3.90
2019-03-27T11:28:37.917Z,4.63
2019-03-27T11:31:05.603Z,4.23
2019-03-27T11:33:33.391Z,4.07
2019-03-27T11:36:01.042Z,4.33
2019-03-27T11:38:28.679Z,4.40
2019-03-27T11:40:56.624Z,4.50
2019-03-27T11:43:24.251Z,4.20
2019-03-27T11:45:51.927Z,4.23
2019-03-27T11:48:19.591Z,4.20
2019-03-27T11:50:47.253Z,3.10
2019-03-27T11:53:14.964Z,3.07
2019-03-27T11:55:42.617Z,3.30
2019-03-27T11:58:10.283Z,3.87
2019-03-27T12:00:37.940Z,2.97
2019-03-27T12:03:05.675Z,3.70
2019-03-27T12:05:33.320Z,3.07
2019-03-27T12:08:00.972Z,3.33
2019-03-27T12:10:28.615Z,3.17
2019-03-27T12:12:56.412Z,2.77
2019-03-27T12:15:24.056Z,3.90
2019-03-27T12:17:51.714Z,3.30
2019-03-27T12:20:19.367Z,3.73
2019-03-27T12:22:57.199Z,4.10
2019-03-27T12:25:16.378Z,3.97
2019-03-27T12:27:44.042Z,3.40
2019-03-27T12:30:11.688Z,3.50
2019-03-27T12:32:39.446Z,4.13
2019-03-27T12:35:07.090Z,4.27
2019-03-27T12:37:34.746Z,4.23
2019-03-27T12:40:11.022Z,4.47
2019-03-27T12:42:31.744Z,4.70
2019-03-27T12:45:01.804Z,5.03
2019-03-27T12:47:28.837Z,4.30
2019-03-27T12:49:56.497Z,5.53
2019-03-27T12:52:24.156Z,5.17
2019-03-27T12:54:51.801Z,4.47
2019-03-27T12:57:19.520Z,5.03
2019-03-27T12:59:47.190Z,5.23
2019-03-27T13:02:14.843Z,6.03
2019-03-27T13:04:42.503Z,4.47
2019-03-27T13:07:10.157Z,4.70
2019-03-27T13:09:37.834Z,5.03
2019-03-27T13:12:05.521Z,5.80
2019-03-27T13:14:33.195Z,5.03
2019-03-27T13:17:00.850Z,5.03
2019-03-27T13:19:28.524Z,5.57
2019-03-27T13:21:56.173Z,5.63
2019-03-27T13:24:23.833Z,5.30
2019-03-27T13:26:51.488Z,5.13
2019-03-27T13:29:19.136Z,5.03
2019-03-27T13:31:46.830Z,5.00
2019-03-27T13:34:14.544Z,5.07
2019-03-27T13:36:46.093Z,6.10
2019-03-27T13:39:13.749Z,4.77
2019-03-27T13:41:41.395Z,5.30
2019-03-27T13:44:09.046Z,4.77
2019-03-27T13:46:36.703Z,5.30
2019-03-27T13:49:04.343Z,5.30
2019-03-27T13:51:40.437Z,5.03
2019-03-27T13:54:01.345Z,5.37
2019-03-27T13:56:28.988Z,6.50
2019-03-27T13:58:56.650Z,7.17
2019-03-27T14:01:24.299Z,6.47
2019-03-27T14:03:51.947Z,6.47
2019-03-27T14:06:19.622Z,6.83
2019-03-27T14:08:47.277Z,8.63
2019-03-27T14:11:14.930Z,6.13
2019-03-27T14:13:43.567Z,6.60
2019-03-27T14:16:11.425Z,5.93
2019-03-27T14:18:39.079Z,5.53
2019-03-27T14:21:06.751Z,6.50
2019-03-27T14:23:34.411Z,5.73
2019-03-27T14:26:02.063Z,5.60
2019-03-27T14:28:29.731Z,5.73
2019-03-27T14:30:57.377Z,6.20
2019-03-27T14:33:25.033Z,6.40
2019-03-27T14:35:52.683Z,6.40
2019-03-27T14:38:20.356Z,5.73
2019-03-27T14:40:48.058Z,5.87
2019-03-27T14:43:15.715Z,6.33
2019-03-27T14:45:43.353Z,6.63
2019-03-27T14:48:11.011Z,6.90
2019-03-27T14:50:38.654Z,7.70
2019-03-27T14:53:06.320Z,7.23
2019-03-27T14:55:33.996Z,7.23
2019-03-27T14:58:01.666Z,7.93
2019-03-27T15:00:29.323Z,8.57
2019-03-27T15:02:56.996Z,8.50
2019-03-27T15:05:24.647Z,10.00
2019-03-27T15:07:52.324Z,8.80
2019-03-27T15:10:19.999Z,9.30
2019-03-27T15:12:47.660Z,9.27
2019-03-27T15:15:15.315Z,8.47
2019-03-27T15:17:43.071Z,8.80
2019-03-27T15:20:10.759Z,9.03
2019-03-27T15:22:38.449Z,9.63
2019-03-27T15:25:06.104Z,9.50
2019-03-27T15:27:33.757Z,9.73
2019-03-27T15:30:01.422Z,9.60
2019-03-27T15:32:29.072Z,10.07
2019-03-27T15:34:56.741Z,10.53
2019-03-27T15:37:24.391Z,9.90
2019-03-27T15:39:52.053Z,10.40
2019-03-27T15:42:19.793Z,9.90
2019-03-27T15:44:49.804Z,10.07
2019-03-27T15:47:18.005Z,11.50
2019-03-27T15:49:45.835Z,9.73
2019-03-27T15:52:13.514Z,9.33
2019-03-27T15:54:41.207Z,9.13
2019-03-27T15:57:08.952Z,9.17
2019-03-27T15:59:36.597Z,8.43
2019-03-27T16:02:05.012Z,8.80
2019-03-27T16:04:32.698Z,7.73
2019-03-27T16:07:00.341Z,7.80
2019-03-27T16:09:27.993Z,8.67
2019-03-27T16:11:55.646Z,8.70
2019-03-27T16:14:23.351Z,7.97
2019-03-27T16:17:06.916Z,7.57
2019-03-27T16:19:20.360Z,7.13
2019-03-27T16:21:48.049Z,7.53
2019-03-27T16:24:15.731Z,7.03
2019-03-27T16:26:43.380Z,7.80
2019-03-27T16:29:11.041Z,7.83
2019-03-27T16:31:38.697Z,7.40
2019-03-27T16:34:06.369Z,8.30
2019-03-27T16:36:34.032Z,8.70
2019-03-27T16:39:01.737Z,8.67
2019-03-27T16:41:29.398Z,9.80
2019-03-27T16:43:57.056Z,8.90
2019-03-27T16:46:24.711Z,9.80
2019-03-27T16:48:52.401Z,8.53
2019-03-27T16:51:20.189Z,9.00
2019-03-27T16:53:47.956Z,9.40
2019-03-27T16:56:15.607Z,8.77
2019-03-27T16:58:43.315Z,9.40
2019-03-27T17:01:10.964Z,9.33
2019-03-27T17:03:38.616Z,9.20
2019-03-27T17:06:06.276Z,8.93
2019-03-27T17:08:33.941Z,8.97
2019-03-27T17:11:01.579Z,8.67
2019-03-27T17:13:29.235Z,9.90
2019-03-27T17:15:56.890Z,9.67
2019-03-27T17:18:27.921Z,8.87
2019-03-27T17:20:53.908Z,8.63
2019-03-27T17:23:21.569Z,8.63
2019-03-27T17:25:49.263Z,8.70
2019-03-27T17:28:17.159Z,8.83
2019-03-27T17:30:44.912Z,7.77
2019-03-27T17:33:12.634Z,7.80
2019-03-27T17:35:40.315Z,7.27
2019-03-27T17:38:10.849Z,7.97
2019-03-27T17:40:37.315Z,8.57
2019-03-27T17:43:04.980Z,8.70
2019-03-27T17:45:32.641Z,8.07
2019-03-27T17:48:00.291Z,7.93
2019-03-27T17:50:27.956Z,9.23
2019-03-27T17:52:55.599Z,8.80
2019-03-27T17:55:23.264Z,8.77
2019-03-27T17:57:50.922Z,7.73
2019-03-27T18:00:21.708Z,7.57
2019-03-27T18:02:49.360Z,7.87
2019-03-27T18:05:16.997Z,8.60
2019-03-27T18:07:44.649Z,7.33
2019-03-27T18:10:12.311Z,7.40
2019-03-27T18:12:39.945Z,7.27
2019-03-27T18:15:07.592Z,8.10
2019-03-27T18:17:35.234Z,7.07
2019-03-27T18:20:02.892Z,7.57
2019-03-27T18:22:30.541Z,8.03
2019-03-27T18:24:58.207Z,7.37
2019-03-27T18:27:25.862Z,7.40
2019-03-27T18:29:53.534Z,6.70
2019-03-27T18:32:21.185Z,6.73
2019-03-27T18:34:48.835Z,6.20
2019-03-27T18:37:16.493Z,6.30
2019-03-27T18:39:44.207Z,7.17
2019-03-27T18:42:11.859Z,6.80
2019-03-27T18:44:39.523Z,6.93
2019-03-27T18:47:07.167Z,6.77
2019-03-27T18:49:34.836Z,6.43
2019-03-27T18:52:02.493Z,6.37
2019-03-27T18:54:30.147Z,6.57
2019-03-27T18:56:57.822Z,6.23
2019-03-27T18:59:25.480Z,6.10
2019-03-27T19:01:53.142Z,6.73
2019-03-27T19:04:20.803Z,6.83
2019-03-27T19:06:48.450Z,7.20
2019-03-27T19:09:16.109Z,6.43
2019-03-27T19:11:43.820Z,6.53
2019-03-27T19:14:11.478Z,6.87
2019-03-27T19:16:39.130Z,7.13
2019-03-27T19:19:06.813Z,6.47
2019-03-27T19:21:34.458Z,7.30
2019-03-27T19:24:12.593Z,6.67
2019-03-27T19:26:31.476Z,7.20
2019-03-27T19:28:59.135Z,6.90
2019-03-27T19:31:26.804Z,6.37
2019-03-27T19:33:54.530Z,6.53
2019-03-27T19:36:22.177Z,7.17
2019-03-27T19:38:49.840Z,6.20
2019-03-27T19:41:17.580Z,6.03
2019-03-27T19:43:45.230Z,6.57
2019-03-27T19:46:13.039Z,6.67
2019-03-27T19:48:40.881Z,6.57
2019-03-27T19:51:11.209Z,5.83
2019-03-27T19:53:37.891Z,7.07
2019-03-27T19:56:05.545Z,6.77
2019-03-27T19:58:33.206Z,6.77
2019-03-27T20:01:00.846Z,6.00
2019-03-27T20:03:28.511Z,6.37
2019-03-27T20:05:56.182Z,6.00
2019-03-27T20:08:23.891Z,5.97
2019-03-27T20:10:51.556Z,6.57
2019-03-27T20:13:19.183Z,6.87
2019-03-27T20:15:46.853Z,6.67
2019-03-27T20:18:14.518Z,5.90
2019-03-27T20:20:42.200Z,7.10
2019-03-27T20:23:15.353Z,6.33
2019-03-27T20:25:40.578Z,5.80
2019-03-27T20:28:08.227Z,7.40
2019-03-27T20:30:35.885Z,7.20
2019-03-27T20:33:03.529Z,6.57
2019-03-27T20:35:31.197Z,6.63
2019-03-27T20:37:58.850Z,6.53
2019-03-27T20:40:27.749Z,6.50
2019-03-27T20:42:55.629Z,7.07
2019-03-27T20:45:23.289Z,6.70
2019-03-27T20:47:50.943Z,6.90
2019-03-27T20:50:18.697Z,6.63
2019-03-27T20:52:46.420Z,6.80
2019-03-27T20:55:14.080Z,7.20
2019-03-27T20:57:41.804Z,7.33
2019-03-27T21:00:09.648Z,6.07
2019-03-27T21:02:37.297Z,6.90
2019-03-27T21:05:04.973Z,7.17
2019-03-27T21:07:32.610Z,6.53
2019-03-27T21:10:00.368Z,6.67
2019-03-27T21:12:28.108Z,7.30
2019-03-27T21:14:55.852Z,7.17
2019-03-27T21:17:23.523Z,6.83
2019-03-27T21:19:51.228Z,8.10
2019-03-27T21:22:18.880Z,8.37
2019-03-27T21:24:46.532Z,7.77
2019-03-27T21:27:16.770Z,7.03
2019-03-27T21:29:43.612Z,7.50
2019-03-27T21:32:11.319Z,7.93
2019-03-27T21:34:38.971Z,8.53
2019-03-27T21:37:06.635Z,8.43
2019-03-27T21:39:34.288Z,8.77
2019-03-27T21:42:01.944Z,8.63
2019-03-27T21:44:29.616Z,8.50
2019-03-27T21:46:57.259Z,9.77
2019-03-27T21:49:24.908Z,9.00
2019-03-27T21:51:52.567Z,9.10
2019-03-27T21:54:20.239Z,8.87
2019-03-27T21:56:47.884Z,8.67
2019-03-27T21:59:15.593Z,8.33
2019-03-27T22:01:43.250Z,9.47
2019-03-27T22:04:10.917Z,9.90
2019-03-27T22:06:38.570Z,9.57
2019-03-27T22:09:06.215Z,9.63
2019-03-27T22:11:33.908Z,8.63
2019-03-27T22:14:01.570Z,9.47
2019-03-27T22:16:29.231Z,9.53
2019-03-27T22:18:56.902Z,10.40
2019-03-27T22:21:24.572Z,9.63
2019-03-27T22:23:52.236Z,9.57
2019-03-27T22:26:19.904Z,10.70
2019-03-27T22:28:47.559Z,9.80
2019-03-27T22:31:15.224Z,10.20
2019-03-27T22:33:42.871Z,10.10
2019-03-27T22:36:10.536Z,9.30
2019-03-27T22:38:38.187Z,9.23
2019-03-27T22:41:05.855Z,9.73
2019-03-27T22:43:33.520Z,9.87
2019-03-27T22:46:01.183Z,10.33
2019-03-27T22:48:28.833Z,8.53
2019-03-27T22:50:56.502Z,9.57
2019-03-27T22:53:24.154Z,10.07
2019-03-27T22:55:51.816Z,9.70
2019-03-27T22:58:19.473Z,9.67
2019-03-27T23:00:48.726Z,9.10
2019-03-27T23:03:18.463Z,9.10
2019-03-27T23:05:45.727Z,9.13
2019-03-27T23:08:13.419Z,9.40
2019-03-27T23:10:41.078Z,9.57
2019-03-27T23:13:08.734Z,8.93
2019-03-27T23:15:36.384Z,10.57
2019-03-27T23:18:04.067Z,8.97
2019-03-27T23:20:31.716Z,9.53
2019-03-27T23:22:59.367Z,9.10
2019-03-27T23:25:27.036Z,9.97
2019-03-27T23:27:54.730Z,9.40
2019-03-27T23:30:22.378Z,9.93
2019-03-27T23:32:50.041Z,10.13
2019-03-27T23:35:18.260Z,9.93
2019-03-27T23:37:46.139Z,9.90
2019-03-27T23:40:13.792Z,9.60
2019-03-27T23:42:41.533Z,10.40
2019-03-27T23:45:09.188Z,9.60
2019-03-27T23:47:36.843Z,11.10
2019-03-27T23:50:04.511Z,10.60
2019-03-27T23:52:32.162Z,11.13
2019-03-27T23:54:59.830Z,9.70
2019-03-27T23:57:27.506Z,10.20
2019-03-27T23:59:55.152Z,9.90
